sensor_id;sensor_type;location;lat;lon;timestamp;pressure;altitude;pressure_sealevel;temperature;humidity
50103;BME280;35993;52.604;10.078;2023-01-29T00:01:28;102400.47;;;0.29;100.00
50103;BME280;35993;52.604;10.078;2023-01-29T00:03:54;102395.13;;;0.29;100.00
50103;BME280;35993;52.604;10.078;2023-01-29T00:06:20;102393.53;;;0.27;100.00
50103;BME280;35993;52.604;10.078;2023-01-29T00:08:47;102390.25;;;0.23;100.00
50103;BME280;35993;52.604;10.078;2023-01-29T00:11:13;102393.13;;;0.20;100.00
50103;BME280;35993;52.604;10.078;2023-01-29T00:13:38;102398.81;;;0.15;100.00
50103;BME280;35993;52.604;10.078;2023-01-29T00:16:04;102390.69;;;0.17;100.00
50103;BME280;35993;52.604;10.078;2023-01-29T00:18:30;102387.78;;;0.20;100.00
50103;BME280;35993;52.604;10.078;2023-01-29T00:20:55;102383.84;;;0.13;100.00
50103;BME280;35993;52.604;10.078;2023-01-29T00:23:21;102384.56;;;0.15;100.00
50103;BME280;35993;52.604;10.078;2023-01-29T00:25:47;102384.56;;;0.15;100.00
50103;BME280;35993;52.604;10.078;2023-01-29T00:28:13;102383.72;;;0.27;100.00
50103;BME280;35993;52.604;10.078;2023-01-29T00:30:39;102378.91;;;0.20;100.00
50103;BME280;35993;52.604;10.078;2023-01-29T00:33:05;102387.78;;;0.20;100.00
50103;BME280;35993;52.604;10.078;2023-01-29T00:35:31;102384.38;;;0.18;100.00
50103;BME280;35993;52.604;10.078;2023-01-29T00:37:57;102378.59;;;0.11;100.00
50103;BME280;35993;52.604;10.078;2023-01-29T00:40:23;102380.63;;;0.08;100.00
50103;BME280;35993;52.604;10.078;2023-01-29T00:42:49;102380.63;;;0.08;100.00
50103;BME280;35993;52.604;10.078;2023-01-29T00:45:34;102380.31;;;0.12;100.00
50103;BME280;35993;52.604;10.078;2023-01-29T00:48:02;102370.69;;;0.10;100.00
50103;BME280;35993;52.604;10.078;2023-01-29T00:50:28;102381.16;;;0.13;100.00
50103;BME280;35993;52.604;10.078;2023-01-29T00:52:54;102375.38;;;0.06;100.00
50103;BME280;35993;52.604;10.078;2023-01-29T00:55:19;102378.59;;;0.11;100.00
50103;BME280;35993;52.604;10.078;2023-01-29T00:57:45;102367.91;;;0.11;100.00
50103;BME280;35993;52.604;10.078;2023-01-29T01:00:14;102375.50;;;0.05;100.00
50103;BME280;35993;52.604;10.078;2023-01-29T01:02:41;102369.72;;;0.11;100.00
50103;BME280;35993;52.604;10.078;2023-01-29T01:05:25;102362.03;;;0.19;100.00
50103;BME280;35993;52.604;10.078;2023-01-29T01:07:53;102362.91;;;0.20;100.00
50103;BME280;35993;52.604;10.078;2023-01-29T01:10:27;102352.22;;;0.20;100.00
50103;BME280;35993;52.604;10.078;2023-01-29T01:13:05;102348.06;;;0.15;100.00
50103;BME280;35993;52.604;10.078;2023-01-29T01:15:35;102349.53;;;0.20;100.00
50103;BME280;35993;52.604;10.078;2023-01-29T01:18:02;102347.72;;;0.20;100.00
50103;BME280;35993;52.604;10.078;2023-01-29T01:20:31;102334.06;;;0.12;100.00
50103;BME280;35993;52.604;10.078;2023-01-29T01:22:57;102330.97;;;0.18;100.00
50103;BME280;35993;52.604;10.078;2023-01-29T01:25:24;102329.00;;;0.20;100.00
50103;BME280;35993;52.604;10.078;2023-01-29T01:27:52;102329.78;;;0.22;100.00
50103;BME280;35993;52.604;10.078;2023-01-29T01:30:18;102321.00;;;0.20;100.00
50103;BME280;35993;52.604;10.078;2023-01-29T01:32:43;102332.00;;;0.28;100.00
50103;BME280;35993;52.604;10.078;2023-01-29T01:35:10;102330.28;;;0.27;100.00
50103;BME280;35993;52.604;10.078;2023-01-29T01:37:36;102332.56;;;0.21;100.00
50103;BME280;35993;52.604;10.078;2023-01-29T01:40:10;102329.34;;;0.28;100.00
50103;BME280;35993;52.604;10.078;2023-01-29T01:42:50;102325.06;;;0.26;100.00
50103;BME280;35993;52.604;10.078;2023-01-29T01:45:20;102327.31;;;0.19;100.00
50103;BME280;35993;52.604;10.078;2023-01-29T01:47:50;102328.59;;;0.26;100.00
50103;BME280;35993;52.604;10.078;2023-01-29T01:50:22;102328.69;;;0.25;100.00
50103;BME280;35993;52.604;10.078;2023-01-29T01:52:54;102327.50;;;0.29;100.00
50103;BME280;35993;52.604;10.078;2023-01-29T01:55:25;102334.88;;;0.25;100.00
50103;BME280;35993;52.604;10.078;2023-01-29T01:57:56;102339.16;;;0.15;100.00
50103;BME280;35993;52.604;10.078;2023-01-29T02:00:24;102342.38;;;0.20;100.00
50103;BME280;35993;52.604;10.078;2023-01-29T02:02:50;102340.22;;;0.25;100.00
50103;BME280;35993;52.604;10.078;2023-01-29T02:05:35;102351.97;;;0.23;100.00
50103;BME280;35993;52.604;10.078;2023-01-29T02:08:36;102349.63;;;0.31;100.00
50103;BME280;35993;52.604;10.078;2023-01-29T02:11:25;102350.34;;;0.33;100.00
50103;BME280;35993;52.604;10.078;2023-01-29T02:13:51;102351.44;;;0.30;100.00
50103;BME280;35993;52.604;10.078;2023-01-29T02:16:24;102358.72;;;0.28;100.00
50103;BME280;35993;52.604;10.078;2023-01-29T02:18:50;102363.00;;;0.31;100.00
50103;BME280;35993;52.604;10.078;2023-01-29T02:30:36;102373.84;;;0.41;100.00
50103;BME280;35993;52.604;10.078;2023-01-29T02:36:00;102378.66;;;0.48;100.00
50103;BME280;35993;52.604;10.078;2023-01-29T02:43:45;102371.19;;;0.41;100.00
50103;BME280;35993;52.604;10.078;2023-01-29T02:46:18;102368.88;;;0.36;100.00
50103;BME280;35993;52.604;10.078;2023-01-29T02:48:54;102365.75;;;0.42;100.00
50103;BME280;35993;52.604;10.078;2023-01-29T02:54:30;102354.00;;;0.45;100.00
50103;BME280;35993;52.604;10.078;2023-01-29T02:56:58;102356.88;;;0.42;100.00
50103;BME280;35993;52.604;10.078;2023-01-29T02:59:31;102350.97;;;0.49;100.00
50103;BME280;35993;52.604;10.078;2023-01-29T03:02:04;102336.38;;;0.42;100.00
50103;BME280;35993;52.604;10.078;2023-01-29T03:04:32;102335.38;;;0.43;100.00
50103;BME280;35993;52.604;10.078;2023-01-29T03:07:04;102335.72;;;0.39;100.00
50103;BME280;35993;52.604;10.078;2023-01-29T03:09:35;102331.34;;;0.38;100.00
50103;BME280;35993;52.604;10.078;2023-01-29T03:12:19;102327.91;;;0.36;100.00
50103;BME280;35993;52.604;10.078;2023-01-29T03:15:05;102339.47;;;0.36;100.00
50103;BME280;35993;52.604;10.078;2023-01-29T03:17:44;102334.00;;;0.38;100.00
50103;BME280;35993;52.604;10.078;2023-01-29T03:20:16;102343.63;;;0.40;100.00
50103;BME280;35993;52.604;10.078;2023-01-29T03:22:48;102334.97;;;0.37;100.00
50103;BME280;35993;52.604;10.078;2023-01-29T03:25:18;102332.66;;;0.32;100.00
50103;BME280;35993;52.604;10.078;2023-01-29T03:28:05;102325.91;;;0.26;100.00
50103;BME280;35993;52.604;10.078;2023-01-29T03:30:54;102320.34;;;0.29;100.00
50103;BME280;35993;52.604;10.078;2023-01-29T03:34:10;102317.78;;;0.28;100.00
50103;BME280;35993;52.604;10.078;2023-01-29T03:36:52;102311.81;;;0.24;100.00
50103;BME280;35993;52.604;10.078;2023-01-29T03:39:21;102298.25;;;0.27;100.00
50103;BME280;35993;52.604;10.078;2023-01-29T03:42:15;102303.50;;;0.16;100.00
50103;BME280;35993;52.604;10.078;2023-01-29T03:44:57;102285.56;;;0.18;100.00
50103;BME280;35993;52.604;10.078;2023-01-29T03:47:42;102280.72;;;0.23;100.00
50103;BME280;35993;52.604;10.078;2023-01-29T03:52:52;102272.72;;;0.23;100.00
50103;BME280;35993;52.604;10.078;2023-01-29T03:55:37;102282.41;;;0.24;100.00
50103;BME280;35993;52.604;10.078;2023-01-29T03:58:23;102284.38;;;0.22;100.00
50103;BME280;35993;52.604;10.078;2023-01-29T04:00:58;102282.53;;;0.23;100.00
50103;BME280;35993;52.604;10.078;2023-01-29T04:06:15;102267.28;;;0.12;100.00
50103;BME280;35993;52.604;10.078;2023-01-29T04:09:03;102256.22;;;0.05;100.00
50103;BME280;35993;52.604;10.078;2023-01-29T04:11:32;102248.28;;;0.04;100.00
50103;BME280;35993;52.604;10.078;2023-01-29T04:14:00;102251.72;;;0.06;100.00
50103;BME280;35993;52.604;10.078;2023-01-29T04:16:39;102239.84;;;0.10;100.00
50103;BME280;35993;52.604;10.078;2023-01-29T04:19:20;102245.28;;;0.08;100.00
50103;BME280;35993;52.604;10.078;2023-01-29T04:21:49;102241.25;;;0.03;100.00
50103;BME280;35993;52.604;10.078;2023-01-29T04:24:17;102237.72;;;0.02;100.00
50103;BME280;35993;52.604;10.078;2023-01-29T04:29:52;102235.81;;;0.04;100.00
50103;BME280;35993;52.604;10.078;2023-01-29T04:32:28;102230.47;;;0.04;100.00
50103;BME280;35993;52.604;10.078;2023-01-29T04:35:05;102227.78;;;0.04;100.00
50103;BME280;35993;52.604;10.078;2023-01-29T04:37:41;102211.88;;;0.03;100.00
50103;BME280;35993;52.604;10.078;2023-01-29T04:40:58;102215.72;;;-0.02;100.00
50103;BME280;35993;52.604;10.078;2023-01-29T04:43:29;102212.09;;;-0.01;100.00
50103;BME280;35993;52.604;10.078;2023-01-29T04:51:42;102209.66;;;-0.04;100.00
50103;BME280;35993;52.604;10.078;2023-01-29T04:57:04;102195.16;;;-0.12;100.00
50103;BME280;35993;52.604;10.078;2023-01-29T05:00:11;102200.25;;;-0.09;100.00
50103;BME280;35993;52.604;10.078;2023-01-29T05:02:38;102204.63;;;-0.08;100.00
50103;BME280;35993;52.604;10.078;2023-01-29T05:05:06;102208.38;;;-0.11;100.00
50103;BME280;35993;52.604;10.078;2023-01-29T05:07:34;102204.13;;;-0.13;100.00
50103;BME280;35993;52.604;10.078;2023-01-29T05:10:04;102197.06;;;-0.14;100.00
50103;BME280;35993;52.604;10.078;2023-01-29T05:12:32;102196.22;;;-0.15;100.00
50103;BME280;35993;52.604;10.078;2023-01-29T05:15:00;102192.69;;;-0.15;100.00
50103;BME280;35993;52.604;10.078;2023-01-29T05:17:27;102199.97;;;-0.18;100.00
50103;BME280;35993;52.604;10.078;2023-01-29T05:19:54;102195.34;;;-0.15;100.00
50103;BME280;35993;52.604;10.078;2023-01-29T05:22:21;102196.94;;;-0.13;100.00
50103;BME280;35993;52.604;10.078;2023-01-29T05:24:48;102209.13;;;-0.09;100.00
50103;BME280;35993;52.604;10.078;2023-01-29T05:27:17;102206.34;;;-0.07;100.00
50103;BME280;35993;52.604;10.078;2023-01-29T05:30:03;102200.13;;;-0.08;100.00
50103;BME280;35993;52.604;10.078;2023-01-29T05:32:29;102203.31;;;-0.03;100.00
50103;BME280;35993;52.604;10.078;2023-01-29T05:34:54;102206.22;;;-0.06;100.00
50103;BME280;35993;52.604;10.078;2023-01-29T05:37:20;102213.03;;;-0.02;100.00
50103;BME280;35993;52.604;10.078;2023-01-29T05:39:45;102208.47;;;0.01;100.00
50103;BME280;35993;52.604;10.078;2023-01-29T05:42:11;102217.31;;;0.01;100.00
50103;BME280;35993;52.604;10.078;2023-01-29T05:44:36;102219.53;;;0.07;100.00
50103;BME280;35993;52.604;10.078;2023-01-29T05:47:02;102222.09;;;0.09;100.00
50103;BME280;35993;52.604;10.078;2023-01-29T05:49:27;102225.25;;;0.03;100.00
50103;BME280;35993;52.604;10.078;2023-01-29T05:51:53;102224.78;;;0.09;100.00
50103;BME280;35993;52.604;10.078;2023-01-29T05:54:18;102241.78;;;0.08;100.00
50103;BME280;35993;52.604;10.078;2023-01-29T05:56:44;102236.84;;;0.14;100.00
50103;BME280;35993;52.604;10.078;2023-01-29T05:59:09;102234.38;;;0.11;100.00
50103;BME280;35993;52.604;10.078;2023-01-29T06:01:35;102226.78;;;0.18;100.00
50103;BME280;35993;52.604;10.078;2023-01-29T06:04:01;102242.47;;;0.23;100.00
50103;BME280;35993;52.604;10.078;2023-01-29T06:06:27;102235.41;;;0.22;100.00
50103;BME280;35993;52.604;10.078;2023-01-29T06:08:53;102241.19;;;0.28;100.00
50103;BME280;35993;52.604;10.078;2023-01-29T06:11:18;102232.09;;;0.31;100.00
50103;BME280;35993;52.604;10.078;2023-01-29T06:13:45;102232.59;;;0.36;100.00
50103;BME280;35993;52.604;10.078;2023-01-29T06:16:12;102223.41;;;0.40;100.00
50103;BME280;35993;52.604;10.078;2023-01-29T06:18:39;102222.13;;;0.33;100.00
50103;BME280;35993;52.604;10.078;2023-01-29T06:21:06;102224.28;;;0.28;100.00
50103;BME280;35993;52.604;10.078;2023-01-29T06:23:33;102223.84;;;0.34;100.00
50103;BME280;35993;52.604;10.078;2023-01-29T06:26:00;102234.41;;;0.36;100.00
50103;BME280;35993;52.604;10.078;2023-01-29T06:28:26;102234.41;;;0.36;100.00
50103;BME280;35993;52.604;10.078;2023-01-29T06:30:51;102243.06;;;0.39;100.00
50103;BME280;35993;52.604;10.078;2023-01-29T06:33:17;102241.47;;;0.37;100.00
50103;BME280;35993;52.604;10.078;2023-01-29T06:35:42;102228.63;;;0.42;100.00
50103;BME280;35993;52.604;10.078;2023-01-29T06:38:08;102210.88;;;0.41;100.00
50103;BME280;35993;52.604;10.078;2023-01-29T06:40:33;102214.53;;;0.40;100.00
50103;BME280;35993;52.604;10.078;2023-01-29T06:42:59;102215.25;;;0.42;100.00
50103;BME280;35993;52.604;10.078;2023-01-29T06:45:25;102226.81;;;0.42;100.00
50103;BME280;35993;52.604;10.078;2023-01-29T06:47:51;102235.56;;;0.44;100.00
50103;BME280;35993;52.604;10.078;2023-01-29T06:50:17;102225.09;;;0.41;100.00
50103;BME280;35993;52.604;10.078;2023-01-29T06:52:42;102246.25;;;0.44;100.00
50103;BME280;35993;52.604;10.078;2023-01-29T06:55:08;102257.81;;;0.45;100.00
50103;BME280;35993;52.604;10.078;2023-01-29T06:57:34;102250.88;;;0.42;100.00
50103;BME280;35993;52.604;10.078;2023-01-29T06:59:59;102263.34;;;0.42;100.00
50103;BME280;35993;52.604;10.078;2023-01-29T07:02:25;102262.84;;;0.37;100.00
50103;BME280;35993;52.604;10.078;2023-01-29T07:04:51;102267.84;;;0.41;100.00
50103;BME280;35993;52.604;10.078;2023-01-29T07:07:16;102264.44;;;0.39;100.00
50103;BME280;35993;52.604;10.078;2023-01-29T07:09:42;102261.66;;;0.41;100.00
50103;BME280;35993;52.604;10.078;2023-01-29T07:12:09;102254.63;;;0.40;100.00
50103;BME280;35993;52.604;10.078;2023-01-29T07:14:35;102264.00;;;0.45;100.00
50103;BME280;35993;52.604;10.078;2023-01-29T07:17:01;102262.59;;;0.53;100.00
50103;BME280;35993;52.604;10.078;2023-01-29T07:19:26;102232.69;;;0.47;100.00
50103;BME280;35993;52.604;10.078;2023-01-29T07:21:52;102227.41;;;0.46;100.00
50103;BME280;35993;52.604;10.078;2023-01-29T07:24:17;102219.91;;;0.51;100.00
50103;BME280;35993;52.604;10.078;2023-01-29T07:26:43;102218.44;;;0.47;100.00
50103;BME280;35993;52.604;10.078;2023-01-29T07:29:09;102206.16;;;0.44;100.00
50103;BME280;35993;52.604;10.078;2023-01-29T07:31:35;102216.84;;;0.44;100.00
50103;BME280;35993;52.604;10.078;2023-01-29T07:34:01;102222.94;;;0.46;100.00
50103;BME280;35993;52.604;10.078;2023-01-29T07:36:26;102211.19;;;0.49;100.00
50103;BME280;35993;52.604;10.078;2023-01-29T07:38:52;102203.03;;;0.51;100.00
50103;BME280;35993;52.604;10.078;2023-01-29T07:41:18;102185.53;;;0.46;100.00
50103;BME280;35993;52.604;10.078;2023-01-29T07:43:45;102174.72;;;0.48;100.00
50103;BME280;35993;52.604;10.078;2023-01-29T07:46:10;102169.63;;;0.45;100.00
50103;BME280;35993;52.604;10.078;2023-01-29T07:48:36;102187.47;;;0.44;100.00
50103;BME280;35993;52.604;10.078;2023-01-29T07:51:02;102194.19;;;0.50;100.00
50103;BME280;35993;52.604;10.078;2023-01-29T07:53:28;102184.59;;;0.47;100.00
50103;BME280;35993;52.604;10.078;2023-01-29T07:55:54;102198.78;;;0.48;100.00
50103;BME280;35993;52.604;10.078;2023-01-29T07:58:19;102201.69;;;0.45;100.00
50103;BME280;35993;52.604;10.078;2023-01-29T08:00:45;102192.69;;;0.46;100.00
50103;BME280;35993;52.604;10.078;2023-01-29T08:03:13;102195.59;;;0.43;100.00
50103;BME280;35993;52.604;10.078;2023-01-29T08:05:41;102195.28;;;0.47;100.00
50103;BME280;35993;52.604;10.078;2023-01-29T08:08:06;102192.81;;;0.44;100.00
50103;BME280;35993;52.604;10.078;2023-01-29T08:10:33;102193.19;;;0.51;100.00
50103;BME280;35993;52.604;10.078;2023-01-29T08:13:00;102193.09;;;0.53;100.00
50103;BME280;35993;52.604;10.078;2023-01-29T08:15:26;102192.13;;;0.54;100.00
50103;BME280;35993;52.604;10.078;2023-01-29T08:17:52;102193.09;;;0.53;100.00
50103;BME280;35993;52.604;10.078;2023-01-29T08:20:19;102192.88;;;0.56;100.00
50103;BME280;35993;52.604;10.078;2023-01-29T08:22:45;102184.09;;;0.54;100.00
50103;BME280;35993;52.604;10.078;2023-01-29T08:25:11;102186.56;;;0.57;100.00
50103;BME280;35993;52.604;10.078;2023-01-29T08:27:37;102183.13;;;0.55;100.00
50103;BME280;35993;52.604;10.078;2023-01-29T08:30:04;102188.59;;;0.53;100.00
50103;BME280;35993;52.604;10.078;2023-01-29T08:32:30;102180.91;;;0.48;100.00
50103;BME280;35993;52.604;10.078;2023-01-29T08:34:56;102180.81;;;0.50;100.00
50103;BME280;35993;52.604;10.078;2023-01-29T08:37:21;102173.66;;;0.51;100.00
50103;BME280;35993;52.604;10.078;2023-01-29T08:39:47;102171.81;;;0.51;100.00
50103;BME280;35993;52.604;10.078;2023-01-29T08:42:12;102162.84;;;0.52;100.00
50103;BME280;35993;52.604;10.078;2023-01-29T08:44:38;102166.25;;;0.54;100.00
50103;BME280;35993;52.604;10.078;2023-01-29T08:47:04;102166.13;;;0.56;100.00
50103;BME280;35993;52.604;10.078;2023-01-29T08:49:30;102170.72;;;0.54;100.00
50103;BME280;35993;52.604;10.078;2023-01-29T08:51:55;102163.28;;;0.46;100.00
50103;BME280;35993;52.604;10.078;2023-01-29T08:54:22;102167.47;;;0.50;100.00
50103;BME280;35993;52.604;10.078;2023-01-29T08:56:48;102168.06;;;0.54;100.00
50103;BME280;35993;52.604;10.078;2023-01-29T08:59:13;102165.00;;;0.47;100.00
50103;BME280;35993;52.604;10.078;2023-01-29T09:01:39;102160.53;;;0.47;100.00
50103;BME280;35993;52.604;10.078;2023-01-29T09:04:05;102158.19;;;0.43;100.00
50103;BME280;35993;52.604;10.078;2023-01-29T09:06:31;102153.59;;;0.45;100.00
50103;BME280;35993;52.604;10.078;2023-01-29T09:08:57;102158.81;;;0.46;100.00
50103;BME280;35993;52.604;10.078;2023-01-29T09:11:22;102153.69;;;0.43;100.00
50103;BME280;35993;52.604;10.078;2023-01-29T09:13:48;102149.09;;;0.45;100.00
50103;BME280;35993;52.604;10.078;2023-01-29T09:16:13;102160.13;;;0.41;100.00
50103;BME280;35993;52.604;10.078;2023-01-29T09:18:39;102152.53;;;0.47;100.00
50103;BME280;35993;52.604;10.078;2023-01-29T09:21:05;102155.78;;;0.51;100.00
50103;BME280;35993;52.604;10.078;2023-01-29T09:23:30;102158.38;;;0.53;100.00
50103;BME280;35993;52.604;10.078;2023-01-29T09:25:56;102174.50;;;0.51;100.00
50103;BME280;35993;52.604;10.078;2023-01-29T09:28:22;102164.44;;;0.55;100.00
50103;BME280;35993;52.604;10.078;2023-01-29T09:30:48;102160.97;;;0.65;100.00
50103;BME280;35993;52.604;10.078;2023-01-29T09:33:13;102160.47;;;0.60;100.00
50103;BME280;35993;52.604;10.078;2023-01-29T09:35:40;102149.84;;;0.59;100.00
50103;BME280;35993;52.604;10.078;2023-01-29T09:38:07;102147.59;;;0.65;100.00
50103;BME280;35993;52.604;10.078;2023-01-29T09:40:35;102147.13;;;0.72;100.00
50103;BME280;35993;52.604;10.078;2023-01-29T09:43:06;102141.53;;;0.75;100.00
50103;BME280;35993;52.604;10.078;2023-01-29T09:45:33;102143.88;;;0.79;100.00
50103;BME280;35993;52.604;10.078;2023-01-29T09:48:01;102137.44;;;0.82;100.00
50103;BME280;35993;52.604;10.078;2023-01-29T09:50:37;102143.63;;;0.82;100.00
50103;BME280;35993;52.604;10.078;2023-01-29T09:53:45;102143.03;;;0.90;100.00
50103;BME280;35993;52.604;10.078;2023-01-29T09:56:18;102132.84;;;1.07;100.00
50103;BME280;35993;52.604;10.078;2023-01-29T09:58:44;102129.06;;;0.98;100.00
50103;BME280;35993;52.604;10.078;2023-01-29T10:04:06;102128.84;;;1.01;100.00
50103;BME280;35993;52.604;10.078;2023-01-29T10:12:29;102126.19;;;1.01;100.00
50103;BME280;35993;52.604;10.078;2023-01-29T10:17:57;102125.59;;;1.09;100.00
50103;BME280;35993;52.604;10.078;2023-01-29T10:23:32;102116.56;;;1.10;100.00
50103;BME280;35993;52.604;10.078;2023-01-29T10:25:58;102123.88;;;1.19;100.00
50103;BME280;35993;52.604;10.078;2023-01-29T10:28:44;102119.72;;;1.15;100.00
50103;BME280;35993;52.604;10.078;2023-01-29T10:31:25;102118.63;;;1.18;100.00
50103;BME280;35993;52.604;10.078;2023-01-29T10:33:57;102107.09;;;1.17;100.00
50103;BME280;35993;52.604;10.078;2023-01-29T10:36:47;102102.34;;;1.21;100.00
50103;BME280;35993;52.604;10.078;2023-01-29T10:39:18;102088.72;;;1.24;100.00
50103;BME280;35993;52.604;10.078;2023-01-29T10:58:50;102049.81;;;1.42;100.00
50103;BME280;35993;52.604;10.078;2023-01-29T11:01:17;102050.03;;;1.39;100.00
50103;BME280;35993;52.604;10.078;2023-01-29T11:03:43;102050.44;;;1.35;100.00
50103;BME280;35993;52.604;10.078;2023-01-29T11:06:14;102056.63;;;1.35;100.00
50103;BME280;35993;52.604;10.078;2023-01-29T11:11:40;102036.78;;;1.38;100.00
50103;BME280;35993;52.604;10.078;2023-01-29T11:14:29;102039.94;;;1.43;100.00
50103;BME280;35993;52.604;10.078;2023-01-29T11:16:56;102027.31;;;1.45;100.00
50103;BME280;35993;52.604;10.078;2023-01-29T11:19:39;102020.56;;;1.62;100.00
50103;BME280;35993;52.604;10.078;2023-01-29T11:22:12;102020.88;;;1.80;100.00
50103;BME280;35993;52.604;10.078;2023-01-29T11:24:38;102010.63;;;1.85;100.00
50103;BME280;35993;52.604;10.078;2023-01-29T11:27:13;102008.81;;;1.86;100.00
50103;BME280;35993;52.604;10.078;2023-01-29T11:29:44;102008.53;;;1.89;100.00
50103;BME280;35993;52.604;10.078;2023-01-29T11:37:46;101990.56;;;2.85;100.00
50103;BME280;35993;52.604;10.078;2023-01-29T11:42:46;101986.94;;;2.44;100.00
50103;BME280;35993;52.604;10.078;2023-01-29T11:47:52;101976.91;;;3.08;100.00
50103;BME280;35993;52.604;10.078;2023-01-29T11:50:21;101972.63;;;3.46;100.00
50103;BME280;35993;52.604;10.078;2023-01-29T11:52:48;101970.81;;;3.86;98.84
50103;BME280;35993;52.604;10.078;2023-01-29T11:55:20;101960.66;;;3.00;98.00
50103;BME280;35993;52.604;10.078;2023-01-29T11:57:50;101961.59;;;2.27;100.00
50103;BME280;35993;52.604;10.078;2023-01-29T12:00:24;101973.03;;;2.08;100.00
50103;BME280;35993;52.604;10.078;2023-01-29T12:03:05;101967.78;;;2.49;100.00
50103;BME280;35993;52.604;10.078;2023-01-29T12:05:36;101960.38;;;2.10;100.00
50103;BME280;35993;52.604;10.078;2023-01-29T12:08:03;101963.56;;;2.04;100.00
50103;BME280;35993;52.604;10.078;2023-01-29T12:10:37;101965.00;;;2.08;100.00
50103;BME280;35993;52.604;10.078;2023-01-29T12:15:37;101952.56;;;1.86;100.00
50103;BME280;35993;52.604;10.078;2023-01-29T12:18:25;101964.88;;;1.88;100.00
50103;BME280;35993;52.604;10.078;2023-01-29T12:20:58;101963.47;;;1.94;100.00
50103;BME280;35993;52.604;10.078;2023-01-29T12:23:45;101958.41;;;1.91;100.00
50103;BME280;35993;52.604;10.078;2023-01-29T12:26:18;101952.44;;;1.87;100.00
50103;BME280;35993;52.604;10.078;2023-01-29T12:29:19;101938.31;;;1.85;100.00
50103;BME280;35993;52.604;10.078;2023-01-29T12:34:25;101932.38;;;1.82;100.00
50103;BME280;35993;52.604;10.078;2023-01-29T12:37:33;101931.81;;;1.78;100.00
50103;BME280;35993;52.604;10.078;2023-01-29T12:40:01;101918.75;;;1.85;100.00
50103;BME280;35993;52.604;10.078;2023-01-29T12:42:28;101917.88;;;1.84;100.00
50103;BME280;35993;52.604;10.078;2023-01-29T12:44:57;101914.03;;;1.98;100.00
50103;BME280;35993;52.604;10.078;2023-01-29T12:47:29;101910.88;;;1.93;100.00
50103;BME280;35993;52.604;10.078;2023-01-29T12:50:02;101911.81;;;1.82;100.00
50103;BME280;35993;52.604;10.078;2023-01-29T12:52:38;101920.16;;;1.89;100.00
50103;BME280;35993;52.604;10.078;2023-01-29T12:55:12;101898.94;;;1.76;100.00
50103;BME280;35993;52.604;10.078;2023-01-29T12:57:47;101897.38;;;1.73;100.00
50103;BME280;35993;52.604;10.078;2023-01-29T13:00:26;101888.38;;;1.74;100.00
50103;BME280;35993;52.604;10.078;2023-01-29T13:05:54;101880.34;;;1.74;100.00
50103;BME280;35993;52.604;10.078;2023-01-29T13:08:25;101891.88;;;1.75;100.00
50103;BME280;35993;52.604;10.078;2023-01-29T13:10:53;101894.97;;;1.70;100.00
50103;BME280;35993;52.604;10.078;2023-01-29T13:13:30;101887.78;;;1.71;100.00
50103;BME280;35993;52.604;10.078;2023-01-29T13:15:58;101880.13;;;1.66;100.00
50103;BME280;35993;52.604;10.078;2023-01-29T13:21:13;101866.34;;;1.71;100.00
50103;BME280;35993;52.604;10.078;2023-01-29T13:23:49;101860.34;;;1.78;100.00
50103;BME280;35993;52.604;10.078;2023-01-29T13:26:17;101853.16;;;1.79;100.00
50103;BME280;35993;52.604;10.078;2023-01-29T13:28:44;101859.38;;;1.79;100.00
50103;BME280;35993;52.604;10.078;2023-01-29T13:31:10;101849.25;;;1.83;100.00
50103;BME280;35993;52.604;10.078;2023-01-29T13:33:37;101855.22;;;1.87;100.00
50103;BME280;35993;52.604;10.078;2023-01-29T13:36:23;101849.13;;;1.85;100.00
50103;BME280;35993;52.604;10.078;2023-01-29T13:39:05;101844.28;;;1.78;100.00
50103;BME280;35993;52.604;10.078;2023-01-29T13:41:40;101834.41;;;1.79;100.00
50103;BME280;35993;52.604;10.078;2023-01-29T13:44:27;101827.84;;;1.83;100.00
50103;BME280;35993;52.604;10.078;2023-01-29T13:46:59;101824.88;;;1.86;100.00
50103;BME280;35993;52.604;10.078;2023-01-29T13:49:36;101819.00;;;1.92;100.00
50103;BME280;35993;52.604;10.078;2023-01-29T13:52:22;101816.31;;;1.92;100.00
50103;BME280;35993;52.604;10.078;2023-01-29T13:54:56;101818.56;;;2.18;100.00
50103;BME280;35993;52.604;10.078;2023-01-29T13:57:54;101818.56;;;2.18;100.00
50103;BME280;35993;52.604;10.078;2023-01-29T14:02:49;101819.31;;;1.99;100.00
50103;BME280;35993;52.604;10.078;2023-01-29T14:05:44;101814.44;;;1.83;100.00
50103;BME280;35993;52.604;10.078;2023-01-29T14:08:43;101808.22;;;1.83;100.00
50103;BME280;35993;52.604;10.078;2023-01-29T14:13:38;101815.94;;;1.76;100.00
50103;BME280;35993;52.604;10.078;2023-01-29T14:18:30;101812.28;;;1.77;100.00
50103;BME280;35993;52.604;10.078;2023-01-29T14:21:04;101812.88;;;1.80;100.00
50103;BME280;35993;52.604;10.078;2023-01-29T14:28:52;101797.94;;;1.78;100.00
50103;BME280;35993;52.604;10.078;2023-01-29T14:34:05;101801.97;;;1.72;100.00
50103;BME280;35993;52.604;10.078;2023-01-29T14:36:38;101800.16;;;1.73;100.00
50103;BME280;35993;52.604;10.078;2023-01-29T14:39:05;101795.78;;;1.72;100.00
50103;BME280;35993;52.604;10.078;2023-01-29T14:41:41;101796.22;;;1.77;100.00
50103;BME280;35993;52.604;10.078;2023-01-29T14:44:45;101793.56;;;1.77;100.00
50103;BME280;35993;52.604;10.078;2023-01-29T14:55:43;101779.00;;;1.70;100.00
50103;BME280;35993;52.604;10.078;2023-01-29T14:58:21;101768.69;;;1.65;100.00